Terminal Aerodrome Forecast
Issued by NWS

Home | Current Version | Previous Version | Text Only | Print | Product List | Glossary On
Versions: 1 2 3 4 5 6 7 8 9 10 11 12 13 14
000
FTUS46 KMTR 290527
TAFSJC
TAF
KSJC 290527Z 2906/3006 30006KT P6SM FEW020
     FM291000 VRB03KT P6SM SCT012
     FM291800 31012KT P6SM SCT300
     FM292000 30016G24KT P6SM SCT300
     FM300400 30016KT P6SM SCT250=

USA.gov is the U.S. government's official web portal to all federal, state and local government web resources and services.